sensor_id;sensor_type;location;lat;lon;timestamp;temperature;humidity
40454;DHT22;26160;51.858;4.398;2023-07-31T00:01:14;17.00;99.90
40454;DHT22;26160;51.858;4.398;2023-07-31T00:03:40;17.10;99.90
40454;DHT22;26160;51.858;4.398;2023-07-31T00:06:06;17.10;99.90
40454;DHT22;26160;51.858;4.398;2023-07-31T00:08:32;17.00;99.90
40454;DHT22;26160;51.858;4.398;2023-07-31T00:10:58;17.00;99.90
40454;DHT22;26160;51.858;4.398;2023-07-31T00:13:25;17.00;99.90
40454;DHT22;26160;51.858;4.398;2023-07-31T00:15:51;17.00;99.90
40454;DHT22;26160;51.858;4.398;2023-07-31T00:18:17;17.00;99.90
40454;DHT22;26160;51.858;4.398;2023-07-31T00:20:43;17.00;99.90
40454;DHT22;26160;51.858;4.398;2023-07-31T00:23:09;17.00;99.90
40454;DHT22;26160;51.858;4.398;2023-07-31T00:25:35;17.00;99.90
40454;DHT22;26160;51.858;4.398;2023-07-31T00:28:02;17.10;99.90
40454;DHT22;26160;51.858;4.398;2023-07-31T00:30:28;17.10;99.90
40454;DHT22;26160;51.858;4.398;2023-07-31T00:32:54;17.10;99.90
40454;DHT22;26160;51.858;4.398;2023-07-31T00:35:20;17.10;99.90
40454;DHT22;26160;51.858;4.398;2023-07-31T00:37:47;17.00;99.90
40454;DHT22;26160;51.858;4.398;2023-07-31T00:40:13;17.00;99.90
40454;DHT22;26160;51.858;4.398;2023-07-31T00:42:40;17.00;99.90
40454;DHT22;26160;51.858;4.398;2023-07-31T00:45:07;16.90;99.90
40454;DHT22;26160;51.858;4.398;2023-07-31T00:47:33;16.90;99.90
40454;DHT22;26160;51.858;4.398;2023-07-31T00:49:59;16.90;99.90
40454;DHT22;26160;51.858;4.398;2023-07-31T00:52:26;16.90;99.90
40454;DHT22;26160;51.858;4.398;2023-07-31T00:54:53;16.90;99.90
40454;DHT22;26160;51.858;4.398;2023-07-31T00:57:19;16.80;99.90
40454;DHT22;26160;51.858;4.398;2023-07-31T00:59:45;16.70;99.90
40454;DHT22;26160;51.858;4.398;2023-07-31T01:02:12;16.70;99.90
40454;DHT22;26160;51.858;4.398;2023-07-31T01:04:38;16.80;99.90
40454;DHT22;26160;51.858;4.398;2023-07-31T01:10:08;16.80;99.90
40454;DHT22;26160;51.858;4.398;2023-07-31T01:12:38;16.90;99.90
40454;DHT22;26160;51.858;4.398;2023-07-31T01:17:31;16.90;99.90
40454;DHT22;26160;51.858;4.398;2023-07-31T01:20:01;16.90;99.90
40454;DHT22;26160;51.858;4.398;2023-07-31T01:27:58;16.90;99.90
40454;DHT22;26160;51.858;4.398;2023-07-31T01:30:28;16.90;99.90
40454;DHT22;26160;51.858;4.398;2023-07-31T01:32:59;16.90;99.90
40454;DHT22;26160;51.858;4.398;2023-07-31T01:35:28;16.90;99.90
40454;DHT22;26160;51.858;4.398;2023-07-31T01:37:54;16.90;99.90
40454;DHT22;26160;51.858;4.398;2023-07-31T01:40:21;16.90;99.90
40454;DHT22;26160;51.858;4.398;2023-07-31T01:42:47;16.80;99.90
40454;DHT22;26160;51.858;4.398;2023-07-31T01:45:13;16.90;99.90
40454;DHT22;26160;51.858;4.398;2023-07-31T01:47:39;16.80;99.90
40454;DHT22;26160;51.858;4.398;2023-07-31T01:50:06;16.80;99.90
40454;DHT22;26160;51.858;4.398;2023-07-31T01:52:32;16.80;99.90
40454;DHT22;26160;51.858;4.398;2023-07-31T01:54:58;16.90;99.90
40454;DHT22;26160;51.858;4.398;2023-07-31T01:57:24;16.80;99.90
40454;DHT22;26160;51.858;4.398;2023-07-31T01:59:50;16.80;99.90
40454;DHT22;26160;51.858;4.398;2023-07-31T02:02:19;16.80;99.90
40454;DHT22;26160;51.858;4.398;2023-07-31T02:04:45;16.80;99.90
40454;DHT22;26160;51.858;4.398;2023-07-31T02:07:12;16.80;99.90
40454;DHT22;26160;51.858;4.398;2023-07-31T02:09:40;16.80;99.90
40454;DHT22;26160;51.858;4.398;2023-07-31T02:12:07;16.80;99.90
40454;DHT22;26160;51.858;4.398;2023-07-31T02:14:34;16.80;99.90
40454;DHT22;26160;51.858;4.398;2023-07-31T02:17:00;16.80;99.90
40454;DHT22;26160;51.858;4.398;2023-07-31T02:19:27;16.80;99.90
40454;DHT22;26160;51.858;4.398;2023-07-31T02:21:53;16.80;99.90
40454;DHT22;26160;51.858;4.398;2023-07-31T02:24:19;16.80;99.90
40454;DHT22;26160;51.858;4.398;2023-07-31T02:26:45;16.70;99.90
40454;DHT22;26160;51.858;4.398;2023-07-31T02:29:12;16.70;99.90
40454;DHT22;26160;51.858;4.398;2023-07-31T02:31:38;16.70;99.90
40454;DHT22;26160;51.858;4.398;2023-07-31T02:34:04;16.70;99.90
40454;DHT22;26160;51.858;4.398;2023-07-31T02:36:30;16.70;99.90
40454;DHT22;26160;51.858;4.398;2023-07-31T02:38:56;16.70;99.90
40454;DHT22;26160;51.858;4.398;2023-07-31T02:41:22;16.70;99.90
40454;DHT22;26160;51.858;4.398;2023-07-31T02:43:48;16.70;99.90
40454;DHT22;26160;51.858;4.398;2023-07-31T02:46:15;16.80;99.90
40454;DHT22;26160;51.858;4.398;2023-07-31T02:48:41;16.80;99.90
40454;DHT22;26160;51.858;4.398;2023-07-31T02:51:07;16.80;99.90
40454;DHT22;26160;51.858;4.398;2023-07-31T02:53:33;16.80;99.90
40454;DHT22;26160;51.858;4.398;2023-07-31T02:55:59;16.80;99.90
40454;DHT22;26160;51.858;4.398;2023-07-31T02:58:25;16.80;99.90
40454;DHT22;26160;51.858;4.398;2023-07-31T03:00:51;16.80;99.90
40454;DHT22;26160;51.858;4.398;2023-07-31T03:03:17;16.80;99.90
40454;DHT22;26160;51.858;4.398;2023-07-31T03:05:44;16.90;99.90
40454;DHT22;26160;51.858;4.398;2023-07-31T03:08:10;16.90;99.90
40454;DHT22;26160;51.858;4.398;2023-07-31T03:10:36;16.90;99.90
40454;DHT22;26160;51.858;4.398;2023-07-31T03:13:02;16.90;99.90
40454;DHT22;26160;51.858;4.398;2023-07-31T03:15:28;16.90;99.90
40454;DHT22;26160;51.858;4.398;2023-07-31T03:17:54;16.90;99.90
40454;DHT22;26160;51.858;4.398;2023-07-31T03:20:21;16.80;99.90
40454;DHT22;26160;51.858;4.398;2023-07-31T03:22:47;16.80;99.90
40454;DHT22;26160;51.858;4.398;2023-07-31T03:25:13;16.80;99.90
40454;DHT22;26160;51.858;4.398;2023-07-31T03:27:40;16.70;99.90
40454;DHT22;26160;51.858;4.398;2023-07-31T03:30:06;16.60;99.90
40454;DHT22;26160;51.858;4.398;2023-07-31T03:32:33;16.50;99.90
40454;DHT22;26160;51.858;4.398;2023-07-31T03:34:59;16.40;99.90
40454;DHT22;26160;51.858;4.398;2023-07-31T03:37:25;16.40;99.90
40454;DHT22;26160;51.858;4.398;2023-07-31T03:39:52;16.40;99.90
40454;DHT22;26160;51.858;4.398;2023-07-31T03:42:18;16.40;99.90
40454;DHT22;26160;51.858;4.398;2023-07-31T03:44:44;16.30;99.90
40454;DHT22;26160;51.858;4.398;2023-07-31T03:47:10;16.30;99.90
40454;DHT22;26160;51.858;4.398;2023-07-31T03:49:36;16.30;99.90
40454;DHT22;26160;51.858;4.398;2023-07-31T03:52:03;16.20;99.90
40454;DHT22;26160;51.858;4.398;2023-07-31T03:54:29;16.20;99.90
40454;DHT22;26160;51.858;4.398;2023-07-31T03:56:55;16.20;99.90
40454;DHT22;26160;51.858;4.398;2023-07-31T03:59:21;16.30;99.90
40454;DHT22;26160;51.858;4.398;2023-07-31T04:01:47;16.20;99.90
40454;DHT22;26160;51.858;4.398;2023-07-31T04:04:14;16.20;99.90
40454;DHT22;26160;51.858;4.398;2023-07-31T04:06:40;16.20;99.90
40454;DHT22;26160;51.858;4.398;2023-07-31T04:09:06;16.20;99.90
40454;DHT22;26160;51.858;4.398;2023-07-31T04:11:32;16.20;99.90
40454;DHT22;26160;51.858;4.398;2023-07-31T04:13:58;16.20;99.90
40454;DHT22;26160;51.858;4.398;2023-07-31T04:16:24;16.20;99.90
40454;DHT22;26160;51.858;4.398;2023-07-31T04:18:51;16.20;99.90
40454;DHT22;26160;51.858;4.398;2023-07-31T04:21:17;16.20;99.90
40454;DHT22;26160;51.858;4.398;2023-07-31T04:23:43;16.20;99.90
40454;DHT22;26160;51.858;4.398;2023-07-31T04:26:09;16.20;99.90
40454;DHT22;26160;51.858;4.398;2023-07-31T04:28:35;16.20;99.90
40454;DHT22;26160;51.858;4.398;2023-07-31T04:31:01;16.20;99.90
40454;DHT22;26160;51.858;4.398;2023-07-31T04:33:28;16.20;99.90
40454;DHT22;26160;51.858;4.398;2023-07-31T04:35:54;16.20;99.90
40454;DHT22;26160;51.858;4.398;2023-07-31T04:38:20;16.10;99.90
40454;DHT22;26160;51.858;4.398;2023-07-31T04:40:47;16.10;99.90
40454;DHT22;26160;51.858;4.398;2023-07-31T04:43:13;16.10;99.90
40454;DHT22;26160;51.858;4.398;2023-07-31T04:45:44;16.10;99.90
40454;DHT22;26160;51.858;4.398;2023-07-31T04:48:11;16.10;99.90
40454;DHT22;26160;51.858;4.398;2023-07-31T04:50:37;16.00;99.90
40454;DHT22;26160;51.858;4.398;2023-07-31T04:53:03;16.00;99.90
40454;DHT22;26160;51.858;4.398;2023-07-31T04:55:29;16.10;99.90
40454;DHT22;26160;51.858;4.398;2023-07-31T04:57:55;16.00;99.90
40454;DHT22;26160;51.858;4.398;2023-07-31T05:00:22;16.00;99.90
40454;DHT22;26160;51.858;4.398;2023-07-31T05:02:48;16.10;99.90
40454;DHT22;26160;51.858;4.398;2023-07-31T05:05:14;16.10;99.90
40454;DHT22;26160;51.858;4.398;2023-07-31T05:07:40;16.10;99.90
40454;DHT22;26160;51.858;4.398;2023-07-31T05:10:07;16.10;99.90
40454;DHT22;26160;51.858;4.398;2023-07-31T05:12:33;16.20;99.90
40454;DHT22;26160;51.858;4.398;2023-07-31T05:14:59;16.20;99.90
40454;DHT22;26160;51.858;4.398;2023-07-31T05:17:25;16.20;99.90
40454;DHT22;26160;51.858;4.398;2023-07-31T05:19:52;16.20;99.90
40454;DHT22;26160;51.858;4.398;2023-07-31T05:22:18;16.20;99.90
40454;DHT22;26160;51.858;4.398;2023-07-31T05:24:44;16.20;99.90
40454;DHT22;26160;51.858;4.398;2023-07-31T05:27:10;16.30;99.90
40454;DHT22;26160;51.858;4.398;2023-07-31T05:29:36;16.30;99.90
40454;DHT22;26160;51.858;4.398;2023-07-31T05:32:03;16.30;99.90
40454;DHT22;26160;51.858;4.398;2023-07-31T05:34:29;16.30;99.90
40454;DHT22;26160;51.858;4.398;2023-07-31T05:36:55;16.30;99.90
40454;DHT22;26160;51.858;4.398;2023-07-31T05:39:21;16.30;99.90
40454;DHT22;26160;51.858;4.398;2023-07-31T05:41:47;16.30;99.90
40454;DHT22;26160;51.858;4.398;2023-07-31T05:44:13;16.40;99.90
40454;DHT22;26160;51.858;4.398;2023-07-31T05:46:39;16.40;99.90
40454;DHT22;26160;51.858;4.398;2023-07-31T05:49:06;16.40;99.90
40454;DHT22;26160;51.858;4.398;2023-07-31T05:51:32;16.40;99.90
40454;DHT22;26160;51.858;4.398;2023-07-31T05:53:58;16.40;99.90
40454;DHT22;26160;51.858;4.398;2023-07-31T05:56:25;16.40;99.90
40454;DHT22;26160;51.858;4.398;2023-07-31T05:58:53;16.50;99.90
40454;DHT22;26160;51.858;4.398;2023-07-31T06:01:19;16.50;99.90
40454;DHT22;26160;51.858;4.398;2023-07-31T06:03:47;16.50;99.90
40454;DHT22;26160;51.858;4.398;2023-07-31T06:06:13;16.50;99.90
40454;DHT22;26160;51.858;4.398;2023-07-31T06:08:39;16.50;99.90
40454;DHT22;26160;51.858;4.398;2023-07-31T06:11:06;16.60;99.90
40454;DHT22;26160;51.858;4.398;2023-07-31T06:13:34;16.60;99.90
40454;DHT22;26160;51.858;4.398;2023-07-31T06:16:01;16.60;99.90
40454;DHT22;26160;51.858;4.398;2023-07-31T06:18:32;16.60;99.90
40454;DHT22;26160;51.858;4.398;2023-07-31T06:20:58;16.60;99.90
40454;DHT22;26160;51.858;4.398;2023-07-31T06:23:25;16.60;99.90
40454;DHT22;26160;51.858;4.398;2023-07-31T06:25:51;16.70;99.90
40454;DHT22;26160;51.858;4.398;2023-07-31T06:28:17;16.60;99.90
40454;DHT22;26160;51.858;4.398;2023-07-31T06:30:43;16.60;99.90
40454;DHT22;26160;51.858;4.398;2023-07-31T06:33:09;16.60;99.90
40454;DHT22;26160;51.858;4.398;2023-07-31T06:35:35;16.60;99.90
40454;DHT22;26160;51.858;4.398;2023-07-31T06:38:01;16.60;99.90
40454;DHT22;26160;51.858;4.398;2023-07-31T06:40:29;16.60;99.90
40454;DHT22;26160;51.858;4.398;2023-07-31T06:42:55;16.70;99.90
40454;DHT22;26160;51.858;4.398;2023-07-31T06:45:21;16.70;99.90
40454;DHT22;26160;51.858;4.398;2023-07-31T06:47:47;16.70;99.90
40454;DHT22;26160;51.858;4.398;2023-07-31T06:50:14;16.60;99.90
40454;DHT22;26160;51.858;4.398;2023-07-31T06:52:40;16.70;99.90
40454;DHT22;26160;51.858;4.398;2023-07-31T06:55:21;16.70;99.90
40454;DHT22;26160;51.858;4.398;2023-07-31T06:57:51;16.80;99.90
40454;DHT22;26160;51.858;4.398;2023-07-31T07:00:19;16.80;99.90
40454;DHT22;26160;51.858;4.398;2023-07-31T07:02:45;16.80;99.90
40454;DHT22;26160;51.858;4.398;2023-07-31T07:05:15;16.80;99.90
40454;DHT22;26160;51.858;4.398;2023-07-31T07:07:42;16.80;99.90
40454;DHT22;26160;51.858;4.398;2023-07-31T07:10:09;16.80;99.90
40454;DHT22;26160;51.858;4.398;2023-07-31T07:12:35;16.90;99.90
40454;DHT22;26160;51.858;4.398;2023-07-31T07:15:02;16.90;99.90
40454;DHT22;26160;51.858;4.398;2023-07-31T07:17:29;16.90;99.90
40454;DHT22;26160;51.858;4.398;2023-07-31T07:19:59;16.90;99.90
40454;DHT22;26160;51.858;4.398;2023-07-31T07:22:25;16.90;99.90
40454;DHT22;26160;51.858;4.398;2023-07-31T07:24:53;16.90;99.90
40454;DHT22;26160;51.858;4.398;2023-07-31T07:27:19;17.00;99.90
40454;DHT22;26160;51.858;4.398;2023-07-31T07:29:46;17.00;99.90
40454;DHT22;26160;51.858;4.398;2023-07-31T07:32:12;17.00;99.90
40454;DHT22;26160;51.858;4.398;2023-07-31T07:34:39;17.00;99.90
40454;DHT22;26160;51.858;4.398;2023-07-31T07:37:05;17.00;99.90
40454;DHT22;26160;51.858;4.398;2023-07-31T07:39:31;17.00;99.90
40454;DHT22;26160;51.858;4.398;2023-07-31T07:41:57;17.00;99.90
40454;DHT22;26160;51.858;4.398;2023-07-31T07:44:24;17.00;99.90
40454;DHT22;26160;51.858;4.398;2023-07-31T07:46:50;17.10;99.90
40454;DHT22;26160;51.858;4.398;2023-07-31T07:49:16;17.20;99.90
40454;DHT22;26160;51.858;4.398;2023-07-31T07:51:42;17.10;99.90
40454;DHT22;26160;51.858;4.398;2023-07-31T07:54:08;17.10;99.90
40454;DHT22;26160;51.858;4.398;2023-07-31T07:56:35;17.10;99.90
40454;DHT22;26160;51.858;4.398;2023-07-31T07:59:02;17.10;99.90
40454;DHT22;26160;51.858;4.398;2023-07-31T08:01:28;17.20;99.90
40454;DHT22;26160;51.858;4.398;2023-07-31T08:03:54;17.10;99.90
40454;DHT22;26160;51.858;4.398;2023-07-31T08:06:20;17.10;99.90
40454;DHT22;26160;51.858;4.398;2023-07-31T08:08:48;17.20;99.90
40454;DHT22;26160;51.858;4.398;2023-07-31T08:11:14;17.20;99.90
40454;DHT22;26160;51.858;4.398;2023-07-31T08:13:40;17.20;99.90
40454;DHT22;26160;51.858;4.398;2023-07-31T08:16:07;17.30;99.90
40454;DHT22;26160;51.858;4.398;2023-07-31T08:18:33;17.30;99.90
40454;DHT22;26160;51.858;4.398;2023-07-31T08:20:59;17.40;99.90
40454;DHT22;26160;51.858;4.398;2023-07-31T08:23:30;17.50;99.90
40454;DHT22;26160;51.858;4.398;2023-07-31T08:25:56;17.60;99.90
40454;DHT22;26160;51.858;4.398;2023-07-31T08:28:22;17.50;99.90
40454;DHT22;26160;51.858;4.398;2023-07-31T08:30:48;17.70;99.90
40454;DHT22;26160;51.858;4.398;2023-07-31T08:33:16;17.60;99.90
40454;DHT22;26160;51.858;4.398;2023-07-31T08:35:42;17.60;99.90
40454;DHT22;26160;51.858;4.398;2023-07-31T08:38:08;17.60;99.90
40454;DHT22;26160;51.858;4.398;2023-07-31T08:40:37;17.50;99.90
40454;DHT22;26160;51.858;4.398;2023-07-31T08:43:08;17.50;99.90
40454;DHT22;26160;51.858;4.398;2023-07-31T08:45:34;17.50;99.90
40454;DHT22;26160;51.858;4.398;2023-07-31T08:48:00;17.60;99.90
40454;DHT22;26160;51.858;4.398;2023-07-31T08:50:27;17.50;99.90
40454;DHT22;26160;51.858;4.398;2023-07-31T08:52:54;17.50;99.90
40454;DHT22;26160;51.858;4.398;2023-07-31T08:55:20;17.60;99.90
40454;DHT22;26160;51.858;4.398;2023-07-31T08:57:51;17.60;99.90
40454;DHT22;26160;51.858;4.398;2023-07-31T09:00:21;17.60;99.90
40454;DHT22;26160;51.858;4.398;2023-07-31T09:03:13;17.70;99.90
40454;DHT22;26160;51.858;4.398;2023-07-31T09:05:46;18.00;99.90
40454;DHT22;26160;51.858;4.398;2023-07-31T09:08:13;18.00;99.90
40454;DHT22;26160;51.858;4.398;2023-07-31T09:10:45;18.00;99.90
40454;DHT22;26160;51.858;4.398;2023-07-31T09:13:15;18.10;99.90
40454;DHT22;26160;51.858;4.398;2023-07-31T09:15:45;18.00;99.90
40454;DHT22;26160;51.858;4.398;2023-07-31T09:18:12;18.00;99.90
40454;DHT22;26160;51.858;4.398;2023-07-31T09:20:40;18.00;99.90
40454;DHT22;26160;51.858;4.398;2023-07-31T09:25:36;18.20;99.90
40454;DHT22;26160;51.858;4.398;2023-07-31T09:28:04;18.10;99.90
40454;DHT22;26160;51.858;4.398;2023-07-31T09:30:32;18.00;99.90
40454;DHT22;26160;51.858;4.398;2023-07-31T09:33:09;18.10;99.90
40454;DHT22;26160;51.858;4.398;2023-07-31T09:35:36;18.20;99.90
40454;DHT22;26160;51.858;4.398;2023-07-31T09:38:10;18.10;99.90
40454;DHT22;26160;51.858;4.398;2023-07-31T09:40:38;18.10;99.90
40454;DHT22;26160;51.858;4.398;2023-07-31T09:43:07;18.10;99.90
40454;DHT22;26160;51.858;4.398;2023-07-31T09:45:39;18.10;99.90
40454;DHT22;26160;51.858;4.398;2023-07-31T09:48:10;18.10;99.90
40454;DHT22;26160;51.858;4.398;2023-07-31T09:50:38;18.10;99.90
40454;DHT22;26160;51.858;4.398;2023-07-31T09:53:08;18.10;99.90
40454;DHT22;26160;51.858;4.398;2023-07-31T09:55:35;18.10;99.90
40454;DHT22;26160;51.858;4.398;2023-07-31T09:58:07;18.20;99.90
40454;DHT22;26160;51.858;4.398;2023-07-31T10:00:33;18.20;99.90
40454;DHT22;26160;51.858;4.398;2023-07-31T10:03:05;18.00;99.90
40454;DHT22;26160;51.858;4.398;2023-07-31T10:05:38;18.00;99.90
40454;DHT22;26160;51.858;4.398;2023-07-31T10:08:07;18.00;99.90
40454;DHT22;26160;51.858;4.398;2023-07-31T10:10:35;18.00;99.90
40454;DHT22;26160;51.858;4.398;2023-07-31T10:13:02;17.90;99.90
40454;DHT22;26160;51.858;4.398;2023-07-31T10:15:30;17.90;99.90
40454;DHT22;26160;51.858;4.398;2023-07-31T10:17:58;17.90;99.90
40454;DHT22;26160;51.858;4.398;2023-07-31T10:20:26;18.00;99.90
40454;DHT22;26160;51.858;4.398;2023-07-31T10:22:54;17.90;99.90
40454;DHT22;26160;51.858;4.398;2023-07-31T10:25:21;17.90;99.90
40454;DHT22;26160;51.858;4.398;2023-07-31T10:27:49;18.00;99.90
40454;DHT22;26160;51.858;4.398;2023-07-31T10:30:18;17.90;99.90
40454;DHT22;26160;51.858;4.398;2023-07-31T10:32:47;18.10;99.90
40454;DHT22;26160;51.858;4.398;2023-07-31T10:35:17;18.10;99.90
40454;DHT22;26160;51.858;4.398;2023-07-31T10:37:44;18.10;99.90
40454;DHT22;26160;51.858;4.398;2023-07-31T10:40:17;18.10;99.90
40454;DHT22;26160;51.858;4.398;2023-07-31T10:42:56;18.10;99.90
40454;DHT22;26160;51.858;4.398;2023-07-31T10:45:33;18.10;99.90
40454;DHT22;26160;51.858;4.398;2023-07-31T10:48:03;18.10;99.90
40454;DHT22;26160;51.858;4.398;2023-07-31T10:50:31;18.20;99.90
40454;DHT22;26160;51.858;4.398;2023-07-31T10:53:00;18.20;99.90
40454;DHT22;26160;51.858;4.398;2023-07-31T10:58:07;18.30;99.90
40454;DHT22;26160;51.858;4.398;2023-07-31T11:00:45;18.40;99.90
40454;DHT22;26160;51.858;4.398;2023-07-31T11:03:15;18.40;99.90
40454;DHT22;26160;51.858;4.398;2023-07-31T11:06:04;18.40;99.90
40454;DHT22;26160;51.858;4.398;2023-07-31T11:08:32;18.40;99.90
40454;DHT22;26160;51.858;4.398;2023-07-31T11:13:42;18.70;99.90
40454;DHT22;26160;51.858;4.398;2023-07-31T11:16:09;18.60;99.90
40454;DHT22;26160;51.858;4.398;2023-07-31T11:18:37;18.70;99.90
40454;DHT22;26160;51.858;4.398;2023-07-31T11:21:04;18.70;99.90
40454;DHT22;26160;51.858;4.398;2023-07-31T11:23:30;18.70;99.90
40454;DHT22;26160;51.858;4.398;2023-07-31T11:25:59;18.70;99.90
40454;DHT22;26160;51.858;4.398;2023-07-31T11:28:26;18.80;99.90
40454;DHT22;26160;51.858;4.398;2023-07-31T11:30:56;18.80;99.90
40454;DHT22;26160;51.858;4.398;2023-07-31T11:33:22;18.80;99.90
40454;DHT22;26160;51.858;4.398;2023-07-31T11:35:49;18.70;99.90
40454;DHT22;26160;51.858;4.398;2023-07-31T11:38:29;18.70;99.90
40454;DHT22;26160;51.858;4.398;2023-07-31T11:41:01;18.60;99.90
40454;DHT22;26160;51.858;4.398;2023-07-31T11:43:28;18.70;99.90
40454;DHT22;26160;51.858;4.398;2023-07-31T11:45:59;18.70;99.90
40454;DHT22;26160;51.858;4.398;2023-07-31T11:48:28;18.90;99.90
40454;DHT22;26160;51.858;4.398;2023-07-31T11:50:58;18.80;99.90
40454;DHT22;26160;51.858;4.398;2023-07-31T11:53:38;18.90;99.90
40454;DHT22;26160;51.858;4.398;2023-07-31T11:56:07;18.90;99.90
40454;DHT22;26160;51.858;4.398;2023-07-31T11:58:35;18.90;99.90
40454;DHT22;26160;51.858;4.398;2023-07-31T12:01:02;18.90;99.90
40454;DHT22;26160;51.858;4.398;2023-07-31T12:03:29;18.90;99.90
40454;DHT22;26160;51.858;4.398;2023-07-31T12:05:55;18.90;99.90
40454;DHT22;26160;51.858;4.398;2023-07-31T12:08:26;18.80;99.90
40454;DHT22;26160;51.858;4.398;2023-07-31T12:10:53;18.90;99.90
40454;DHT22;26160;51.858;4.398;2023-07-31T12:13:24;18.90;99.90
40454;DHT22;26160;51.858;4.398;2023-07-31T12:15:55;18.80;99.90
40454;DHT22;26160;51.858;4.398;2023-07-31T12:18:22;18.90;99.90
40454;DHT22;26160;51.858;4.398;2023-07-31T12:20:59;18.90;99.90
40454;DHT22;26160;51.858;4.398;2023-07-31T12:23:30;19.00;99.90
40454;DHT22;26160;51.858;4.398;2023-07-31T12:26:13;19.00;99.90
40454;DHT22;26160;51.858;4.398;2023-07-31T12:28:47;19.00;99.90
40454;DHT22;26160;51.858;4.398;2023-07-31T12:31:18;18.90;99.90
40454;DHT22;26160;51.858;4.398;2023-07-31T12:33:46;18.80;99.90
40454;DHT22;26160;51.858;4.398;2023-07-31T12:36:15;18.80;99.90
40454;DHT22;26160;51.858;4.398;2023-07-31T12:38:42;18.90;99.90
40454;DHT22;26160;51.858;4.398;2023-07-31T12:41:08;18.80;99.90
40454;DHT22;26160;51.858;4.398;2023-07-31T12:43:39;18.80;99.90
40454;DHT22;26160;51.858;4.398;2023-07-31T12:46:05;18.80;99.90
40454;DHT22;26160;51.858;4.398;2023-07-31T12:48:34;18.80;99.90
40454;DHT22;26160;51.858;4.398;2023-07-31T12:51:00;18.80;99.90
40454;DHT22;26160;51.858;4.398;2023-07-31T12:53:27;19.10;99.90
40454;DHT22;26160;51.858;4.398;2023-07-31T12:55:54;19.10;99.90
40454;DHT22;26160;51.858;4.398;2023-07-31T12:58:20;18.90;99.90
40454;DHT22;26160;51.858;4.398;2023-07-31T13:00:46;18.80;99.90
40454;DHT22;26160;51.858;4.398;2023-07-31T13:03:12;18.80;99.90
40454;DHT22;26160;51.858;4.398;2023-07-31T13:05:38;18.80;99.90
40454;DHT22;26160;51.858;4.398;2023-07-31T13:08:05;19.00;99.90
40454;DHT22;26160;51.858;4.398;2023-07-31T13:10:31;19.10;99.90
40454;DHT22;26160;51.858;4.398;2023-07-31T13:12:57;19.10;99.90
40454;DHT22;26160;51.858;4.398;2023-07-31T13:15:23;19.00;99.90
40454;DHT22;26160;51.858;4.398;2023-07-31T13:17:49;19.00;99.90
40454;DHT22;26160;51.858;4.398;2023-07-31T13:20:15;19.00;99.90
40454;DHT22;26160;51.858;4.398;2023-07-31T13:22:41;19.00;99.90
40454;DHT22;26160;51.858;4.398;2023-07-31T13:25:08;19.00;99.90
40454;DHT22;26160;51.858;4.398;2023-07-31T13:27:35;18.90;99.90
40454;DHT22;26160;51.858;4.398;2023-07-31T13:30:01;18.90;99.90
40454;DHT22;26160;51.858;4.398;2023-07-31T13:32:28;18.90;99.90
40454;DHT22;26160;51.858;4.398;2023-07-31T13:34:54;18.90;99.90
40454;DHT22;26160;51.858;4.398;2023-07-31T13:37:20;18.90;99.90
40454;DHT22;26160;51.858;4.398;2023-07-31T13:39:46;18.90;99.90
40454;DHT22;26160;51.858;4.398;2023-07-31T13:42:12;18.80;99.90
40454;DHT22;26160;51.858;4.398;2023-07-31T13:44:39;18.80;99.90
40454;DHT22;26160;51.858;4.398;2023-07-31T13:47:06;18.80;99.90
40454;DHT22;26160;51.858;4.398;2023-07-31T13:49:33;18.70;99.90
40454;DHT22;26160;51.858;4.398;2023-07-31T13:51:59;18.80;99.90
40454;DHT22;26160;51.858;4.398;2023-07-31T13:54:26;18.70;99.90
40454;DHT22;26160;51.858;4.398;2023-07-31T13:56:52;18.70;99.90
40454;DHT22;26160;51.858;4.398;2023-07-31T13:59:19;18.70;99.90
40454;DHT22;26160;51.858;4.398;2023-07-31T14:01:45;18.70;99.90
40454;DHT22;26160;51.858;4.398;2023-07-31T14:04:12;18.70;99.90
40454;DHT22;26160;51.858;4.398;2023-07-31T14:06:38;18.60;99.90
40454;DHT22;26160;51.858;4.398;2023-07-31T14:09:05;18.50;99.90
40454;DHT22;26160;51.858;4.398;2023-07-31T14:11:31;18.60;99.90
40454;DHT22;26160;51.858;4.398;2023-07-31T14:13:57;18.60;99.90
40454;DHT22;26160;51.858;4.398;2023-07-31T14:16:24;18.50;99.90
40454;DHT22;26160;51.858;4.398;2023-07-31T14:18:50;18.60;99.90
40454;DHT22;26160;51.858;4.398;2023-07-31T14:21:16;18.60;99.90
40454;DHT22;26160;51.858;4.398;2023-07-31T14:23:45;18.60;99.90
40454;DHT22;26160;51.858;4.398;2023-07-31T14:26:11;18.60;99.90
40454;DHT22;26160;51.858;4.398;2023-07-31T14:28:38;18.50;99.90
40454;DHT22;26160;51.858;4.398;2023-07-31T14:31:04;18.50;99.90
40454;DHT22;26160;51.858;4.398;2023-07-31T14:33:30;18.50;99.90
40454;DHT22;26160;51.858;4.398;2023-07-31T14:35:56;18.40;99.90
40454;DHT22;26160;51.858;4.398;2023-07-31T14:38:23;18.40;99.90
40454;DHT22;26160;51.858;4.398;2023-07-31T14:40:49;18.40;99.90
40454;DHT22;26160;51.858;4.398;2023-07-31T14:43:15;18.50;99.90
40454;DHT22;26160;51.858;4.398;2023-07-31T14:45:41;18.40;99.90
40454;DHT22;26160;51.858;4.398;2023-07-31T14:48:08;18.40;99.90
40454;DHT22;26160;51.858;4.398;2023-07-31T14:50:34;18.40;99.90
40454;DHT22;26160;51.858;4.398;2023-07-31T14:53:00;18.40;99.90
40454;DHT22;26160;51.858;4.398;2023-07-31T14:55:27;18.40;99.90
40454;DHT22;26160;51.858;4.398;2023-07-31T14:57:53;18.40;99.90
40454;DHT22;26160;51.858;4.398;2023-07-31T15:00:19;18.40;99.90
40454;DHT22;26160;51.858;4.398;2023-07-31T15:02:46;18.40;99.90
40454;DHT22;26160;51.858;4.398;2023-07-31T15:05:12;18.30;99.90
40454;DHT22;26160;51.858;4.398;2023-07-31T15:07:38;18.30;99.90
40454;DHT22;26160;51.858;4.398;2023-07-31T15:10:05;18.30;99.90
40454;DHT22;26160;51.858;4.398;2023-07-31T15:12:31;18.20;99.90
40454;DHT22;26160;51.858;4.398;2023-07-31T15:14:58;18.30;99.90
40454;DHT22;26160;51.858;4.398;2023-07-31T15:17:24;18.30;99.90
40454;DHT22;26160;51.858;4.398;2023-07-31T15:19:50;18.30;99.90
40454;DHT22;26160;51.858;4.398;2023-07-31T15:22:16;18.20;99.90
40454;DHT22;26160;51.858;4.398;2023-07-31T15:24:42;18.30;99.90
40454;DHT22;26160;51.858;4.398;2023-07-31T15:27:09;18.20;99.90
40454;DHT22;26160;51.858;4.398;2023-07-31T15:29:35;18.20;99.90
40454;DHT22;26160;51.858;4.398;2023-07-31T15:32:05;18.20;99.90
40454;DHT22;26160;51.858;4.398;2023-07-31T15:34:32;18.20;99.90
40454;DHT22;26160;51.858;4.398;2023-07-31T15:36:58;18.20;99.90
40454;DHT22;26160;51.858;4.398;2023-07-31T15:39:24;18.20;99.90
40454;DHT22;26160;51.858;4.398;2023-07-31T15:41:51;18.20;99.90
40454;DHT22;26160;51.858;4.398;2023-07-31T15:44:17;18.20;99.90
40454;DHT22;26160;51.858;4.398;2023-07-31T15:46:43;18.20;99.90
40454;DHT22;26160;51.858;4.398;2023-07-31T15:49:10;18.10;99.90